CheckWX is a tool to help pilots better visualize weather data.  It is not intended as a substitute for an official pre-flight weather briefing.

07:47:31 UTC

KHOT TAF
Memorial Field Airport
Hot Springs, Arkansas, USA
KHOT 210525Z 2106/2206 13008KT P6SM SCT120 BKN250 FM210900 17008KT P6SM VCSH SCT040 OVC080 WS020/20040KT FM211800 20008KT P6SM VCSH SCT008 BKN025 OVC040 PROB30 2118/2124 5SM -RA BR BKN008 OVC025 FM220000 16006KT 6SM -RA OVC015

Nov-21@
06:00 UTC

Nov-21 @ 06:00 UTC

Nov-21@
09:00 UTC

Nov-21 @ 09:00 UTC

KHOT 210525Z 2106/2206 13008KT P6SM SCT120 BKN250
Wind
  • 130° at 8 KTS
Cloud Levels
  • Scattered at 12,000' AGL
  • Broken at 25,000' AGL

Nov-21@
09:00 UTC

Nov-21 @ 09:00 UTC

Nov-21@
18:00 UTC

Nov-21 @ 18:00 UTC

FM210900 17008KT P6SM VCSH SCT040 OVC080 WS020/20040KT

From

From Standard forecast or significant change

Wind
  • 170° at 8 KTS
Cloud Levels
  • Scattered at 4,000' AGL
  • Overcast at 8,000' AGL

Nov-21@
18:00 UTC

Nov-21 @ 18:00 UTC

Nov-22@
00:00 UTC

Nov-22 @ 00:00 UTC

FM211800 20008KT P6SM VCSH SCT008 BKN025 OVC040

From

From Standard forecast or significant change

Wind
  • 200° at 8 KTS
Cloud Levels
  • Scattered at 800' AGL
  • Broken at 2,500' AGL
  • Overcast at 4,000' AGL

Nov-21@
18:00 UTC

Nov-21 @ 18:00 UTC

Nov-22@
00:00 UTC

Nov-22 @ 00:00 UTC

PROB30 2118/2124 5SM -RA BR BKN008 OVC025

Probable - 30% Likelihood

Probable - 30% Likelihood during this time.

Conditions
Light Rain, Mist
Cloud Levels
  • Broken at 800' AGL
  • Overcast at 2,500' AGL

Nov-22@
00:00 UTC

Nov-22 @ 00:00 UTC

Nov-22@
06:00 UTC

Nov-22 @ 06:00 UTC

FM220000 16006KT 6SM -RA OVC015

From

From Standard forecast or significant change

Wind
  • 160° at 6 KTS
Conditions
Light Rain
Cloud Levels
  • Overcast at 1,500' AGL